createdAt,value
2018-04-06T00:01:56.195Z,99568.10
2018-04-06T00:04:24.487Z,99567.86
2018-04-06T00:06:52.868Z,99568.00
2018-04-06T00:09:21.142Z,99572.25
2018-04-06T00:11:49.530Z,99572.72
2018-04-06T00:14:17.801Z,99555.84
2018-04-06T00:16:46.105Z,99556.17
2018-04-06T00:19:14.374Z,99559.09
2018-04-06T00:21:42.636Z,99558.52
2018-04-06T00:24:11.000Z,99556.75
2018-04-06T00:26:39.284Z,99557.70
2018-04-06T00:29:07.609Z,99563.97
2018-04-06T00:31:35.919Z,99563.17
2018-04-06T00:34:04.246Z,99562.34
2018-04-06T00:36:32.486Z,99552.09
2018-04-06T00:39:00.850Z,99558.93
2018-04-06T00:41:29.127Z,99562.59
2018-04-06T00:43:57.463Z,99557.28
2018-04-06T00:46:25.806Z,99543.11
2018-04-06T00:48:54.090Z,99553.98
2018-04-06T00:51:22.356Z,99554.30
2018-04-06T00:53:50.631Z,99549.52
2018-04-06T00:56:18.893Z,99538.46
2018-04-06T00:58:47.192Z,99543.29
2018-04-06T01:01:15.450Z,99552.45
2018-04-06T01:03:43.743Z,99548.34
2018-04-06T01:06:12.023Z,99549.39
2018-04-06T01:08:40.280Z,99550.61
2018-04-06T01:11:08.575Z,99551.51
2018-04-06T01:13:36.853Z,99548.11
2018-04-06T01:16:05.660Z,99547.98
2018-04-06T01:18:33.944Z,99546.52
2018-04-06T01:21:02.236Z,99538.95
2018-04-06T01:23:30.560Z,99536.58
2018-04-06T01:25:59.167Z,99530.38
2018-04-06T01:28:27.442Z,99526.50
2018-04-06T01:30:55.791Z,99532.22
2018-04-06T01:33:24.089Z,99534.94
2018-04-06T01:35:52.372Z,99535.66
2018-04-06T01:38:20.640Z,99534.29
2018-04-06T01:40:49.957Z,99533.70
2018-04-06T01:43:18.299Z,99531.61
2018-04-06T01:45:46.575Z,99531.09
2018-04-06T01:48:14.875Z,99524.09
2018-04-06T01:50:43.153Z,99520.21
2018-04-06T01:53:11.451Z,99520.06
2018-04-06T01:55:39.719Z,99527.84
2018-04-06T01:58:08.030Z,99528.55
2018-04-06T02:00:36.270Z,99528.50
2018-04-06T02:03:05.474Z,99533.41
2018-04-06T02:05:33.785Z,99521.20
2018-04-06T02:08:02.053Z,99518.20
2018-04-06T02:10:30.444Z,99518.11
2018-04-06T02:12:58.741Z,99523.79
2018-04-06T02:15:26.995Z,99517.44
2018-04-06T02:17:55.290Z,99509.94
2018-04-06T02:20:24.475Z,99506.20
2018-04-06T02:22:52.785Z,99523.89
2018-04-06T02:25:21.064Z,99522.80
2018-04-06T02:27:49.390Z,99519.67
2018-04-06T02:30:17.662Z,99515.16
2018-04-06T02:32:46.015Z,99508.88
2018-04-06T02:35:14.273Z,99509.80
2018-04-06T02:37:42.570Z,99507.28
2018-04-06T02:40:10.865Z,99511.80
2018-04-06T02:42:39.138Z,99499.80
2018-04-06T02:45:07.446Z,99505.55
2018-04-06T02:47:35.748Z,99510.12
2018-04-06T02:50:05.079Z,99509.89
2018-04-06T02:52:33.349Z,99506.18
2018-04-06T02:55:01.839Z,99510.25
2018-04-06T02:57:30.088Z,99507.88
2018-04-06T02:59:58.404Z,99514.61
2018-04-06T03:02:26.680Z,99512.55
2018-04-06T03:04:55.122Z,99521.85
2018-04-06T03:07:23.379Z,99520.72
2018-04-06T03:09:51.651Z,99520.34
2018-04-06T03:12:19.943Z,99521.52
2018-04-06T03:14:48.233Z,99516.38
2018-04-06T03:17:16.546Z,99514.91
2018-04-06T03:19:44.869Z,99514.20
2018-04-06T03:22:13.140Z,99511.57
2018-04-06T03:24:41.430Z,99512.57
2018-04-06T03:27:09.683Z,99513.97
2018-04-06T03:29:37.989Z,99514.06
2018-04-06T03:32:06.314Z,99515.12
2018-04-06T03:34:34.565Z,99509.97
2018-04-06T03:37:02.848Z,99506.40
2018-04-06T03:39:31.124Z,99511.84
2018-04-06T03:41:59.386Z,99507.02
2018-04-06T03:44:27.673Z,99504.50
2018-04-06T03:46:55.935Z,99506.63
2018-04-06T03:49:24.212Z,99482.80
2018-04-06T03:51:52.519Z,99500.00
2018-04-06T03:54:20.882Z,99503.41
2018-04-06T03:56:49.177Z,99499.18
2018-04-06T03:59:17.576Z,99494.10
2018-04-06T04:01:45.939Z,99496.11
2018-04-06T04:04:14.213Z,99493.48
2018-04-06T04:06:42.526Z,99494.24
2018-04-06T04:09:10.807Z,99491.72
2018-04-06T04:11:39.112Z,99489.11
2018-04-06T04:14:07.396Z,99490.80
2018-04-06T04:16:35.687Z,99486.76
2018-04-06T04:19:03.959Z,99490.47
2018-04-06T04:21:32.339Z,99497.22
2018-04-06T04:24:00.616Z,99494.59
2018-04-06T04:26:28.881Z,99484.19
2018-04-06T04:28:57.157Z,99492.77
2018-04-06T04:31:25.436Z,99495.73
2018-04-06T04:33:53.700Z,99495.28
2018-04-06T04:36:21.995Z,99490.05
2018-04-06T04:38:50.269Z,99489.30
2018-04-06T04:41:18.536Z,99488.56
2018-04-06T04:43:46.813Z,99489.34
2018-04-06T04:46:15.096Z,99485.42
2018-04-06T04:48:43.411Z,99479.91
2018-04-06T04:51:11.675Z,99477.11
2018-04-06T04:53:39.943Z,99474.19
2018-04-06T04:56:08.204Z,99474.41
2018-04-06T04:58:36.537Z,99479.60
2018-04-06T05:01:05.020Z,99474.31
2018-04-06T05:03:33.297Z,99473.12
2018-04-06T05:06:01.629Z,99473.64
2018-04-06T05:08:29.958Z,99475.05
2018-04-06T05:10:58.453Z,99480.34
2018-04-06T05:13:26.754Z,99481.41
2018-04-06T05:15:55.072Z,99481.38
2018-04-06T05:18:23.396Z,99478.36
2018-04-06T05:20:51.664Z,99477.98
2018-04-06T05:23:20.144Z,99484.62
2018-04-06T05:25:48.398Z,99484.68
2018-04-06T05:28:16.690Z,99484.99
2018-04-06T05:30:44.968Z,99487.20
2018-04-06T05:33:13.274Z,99486.73
2018-04-06T05:35:41.573Z,99477.34
2018-04-06T05:38:09.889Z,99484.67
2018-04-06T05:40:38.255Z,99490.37
2018-04-06T05:43:06.528Z,99494.98
2018-04-06T05:45:34.864Z,99496.88
2018-04-06T05:48:03.135Z,99501.27
2018-04-06T05:50:31.473Z,99501.87
2018-04-06T05:52:59.701Z,99498.97
2018-04-06T05:55:28.145Z,99498.60
2018-04-06T05:57:56.441Z,99500.63
2018-04-06T06:00:24.761Z,99510.96
2018-04-06T06:02:53.696Z,99508.84
2018-04-06T06:05:22.007Z,99507.63
2018-04-06T06:07:50.336Z,99508.91
2018-04-06T06:10:18.727Z,99503.55
2018-04-06T06:12:46.997Z,99501.58
2018-04-06T06:15:15.366Z,99503.47
2018-04-06T06:17:43.658Z,99501.50
2018-04-06T06:20:11.925Z,99489.03
2018-04-06T06:22:40.237Z,99500.60
2018-04-06T06:25:08.916Z,99474.64
2018-04-06T06:27:37.226Z,99494.53
2018-04-06T06:30:05.517Z,99493.21
2018-04-06T06:32:34.758Z,99497.35
2018-04-06T06:35:03.752Z,99488.32
2018-04-06T06:37:32.119Z,99493.77
2018-04-06T06:40:00.527Z,99488.88
2018-04-06T06:42:28.836Z,99470.79
2018-04-06T06:44:57.120Z,99474.34
2018-04-06T06:47:25.497Z,99476.11
2018-04-06T06:49:53.740Z,99474.98
2018-04-06T06:52:22.100Z,99474.73
2018-04-06T06:54:50.370Z,99474.90
2018-04-06T06:57:19.046Z,99483.84
2018-04-06T06:59:47.411Z,99475.87
2018-04-06T07:02:15.767Z,99482.20
2018-04-06T07:04:44.069Z,99483.56
2018-04-06T07:07:12.694Z,99467.48
2018-04-06T07:09:41.076Z,99473.97
2018-04-06T07:12:09.344Z,99474.51
2018-04-06T07:14:38.036Z,99472.93
2018-04-06T07:17:06.312Z,99465.92
2018-04-06T07:19:34.617Z,99475.42
2018-04-06T07:22:02.865Z,99456.59
2018-04-06T07:24:31.155Z,99457.61
2018-04-06T07:26:59.410Z,99450.91
2018-04-06T07:29:28.648Z,99452.91
2018-04-06T07:31:56.956Z,99431.53
2018-04-06T07:34:26.028Z,99442.38
2018-04-06T07:36:54.332Z,99437.26
2018-04-06T07:39:22.642Z,99433.59
2018-04-06T07:41:50.910Z,99433.47
2018-04-06T07:44:19.259Z,99420.00
2018-04-06T07:46:47.584Z,99414.68
2018-04-06T07:49:15.917Z,99420.96
2018-04-06T07:51:44.239Z,99416.23
2018-04-06T07:54:12.579Z,99408.13
2018-04-06T07:56:40.879Z,99416.61
2018-04-06T07:59:09.188Z,99408.50
2018-04-06T08:01:37.510Z,99410.48
2018-04-06T08:04:05.786Z,99406.33
2018-04-06T08:06:34.138Z,99410.48
2018-04-06T08:09:02.436Z,99412.60
2018-04-06T08:11:30.760Z,99410.92
2018-04-06T08:13:59.226Z,99414.06
2018-04-06T08:16:27.531Z,99409.95
2018-04-06T08:18:55.825Z,99387.30
2018-04-06T08:21:24.137Z,99401.95
2018-04-06T08:23:52.415Z,99399.67
2018-04-06T08:26:20.854Z,99402.95
2018-04-06T08:28:49.066Z,99392.13
2018-04-06T08:31:17.775Z,99381.96
2018-04-06T08:33:46.008Z,99393.55
2018-04-06T08:36:14.683Z,99394.69
2018-04-06T08:38:43.901Z,99391.94
2018-04-06T08:41:12.280Z,99379.44
2018-04-06T08:43:40.567Z,99393.77
2018-04-06T08:46:08.890Z,99392.95
2018-04-06T08:48:37.189Z,99382.22
2018-04-06T08:51:05.515Z,99394.89
2018-04-06T08:53:33.781Z,99391.98
2018-04-06T08:56:02.114Z,99389.95
2018-04-06T08:58:30.412Z,99380.10
2018-04-06T09:00:58.843Z,99374.91
2018-04-06T09:03:27.191Z,99376.51
2018-04-06T09:05:55.515Z,99372.16
2018-04-06T09:08:23.792Z,99366.51
2018-04-06T09:10:52.085Z,99370.88
2018-04-06T09:13:20.440Z,99366.05
2018-04-06T09:15:48.728Z,99365.75
2018-04-06T09:18:17.078Z,99361.63
2018-04-06T09:20:45.405Z,99350.61
2018-04-06T09:23:13.776Z,99350.02
2018-04-06T09:25:42.808Z,99343.88
2018-04-06T09:28:11.147Z,99352.20
2018-04-06T09:30:39.468Z,99346.94
2018-04-06T09:33:07.811Z,99344.77
2018-04-06T09:35:38.587Z,99345.17
2018-04-06T09:38:06.900Z,99345.58
2018-04-06T09:40:35.211Z,99336.38
2018-04-06T09:43:04.045Z,99338.74
2018-04-06T09:45:32.526Z,99330.80
2018-04-06T09:48:00.880Z,99329.78
2018-04-06T09:50:29.212Z,99333.58
2018-04-06T09:52:57.562Z,99326.85
2018-04-06T09:55:25.864Z,99323.63
2018-04-06T09:57:54.255Z,99326.84
2018-04-06T10:00:28.003Z,99316.20
2018-04-06T10:02:57.174Z,99321.66
2018-04-06T10:05:25.383Z,99304.75
2018-04-06T10:07:54.543Z,99305.81
2018-04-06T10:10:22.810Z,99311.09
2018-04-06T10:12:51.121Z,99307.66
2018-04-06T10:15:19.490Z,99303.69
2018-04-06T10:17:47.792Z,99307.93
2018-04-06T10:20:16.089Z,99305.80
2018-04-06T10:22:44.467Z,99296.80
2018-04-06T10:25:12.768Z,99292.42
2018-04-06T10:27:41.025Z,99286.97
2018-04-06T10:30:09.317Z,99289.62
2018-04-06T10:32:37.638Z,99286.14
2018-04-06T10:35:06.045Z,99279.63
2018-04-06T10:37:34.248Z,99277.38
2018-04-06T10:40:02.758Z,99262.23
2018-04-06T10:42:31.044Z,99269.20
2018-04-06T10:44:59.335Z,99259.05
2018-04-06T10:47:27.699Z,99253.36
2018-04-06T10:49:56.058Z,99257.27
2018-04-06T10:52:24.320Z,99253.40
2018-04-06T10:54:53.151Z,99253.33
2018-04-06T10:57:21.472Z,99255.27
2018-04-06T10:59:49.829Z,99234.48
2018-04-06T11:02:18.106Z,99253.23
2018-04-06T11:04:46.397Z,99254.55
2018-04-06T11:07:14.683Z,99253.91
2018-04-06T11:09:43.030Z,99248.94
2018-04-06T11:12:11.315Z,99248.82
2018-04-06T11:14:39.670Z,99236.67
2018-04-06T11:17:09.428Z,99232.11
2018-04-06T11:19:37.730Z,99235.91
2018-04-06T11:22:06.056Z,99223.34
2018-04-06T11:24:34.397Z,99218.70
2018-04-06T11:27:02.725Z,99208.48
2018-04-06T11:29:30.987Z,99216.71
2018-04-06T11:31:59.264Z,99222.14
2018-04-06T11:34:27.576Z,99218.88
2018-04-06T11:36:55.884Z,99208.30
2018-04-06T11:39:24.285Z,99217.83
2018-04-06T11:41:52.569Z,99214.48
2018-04-06T11:44:20.885Z,99202.63
2018-04-06T11:46:49.222Z,99189.61
2018-04-06T11:49:17.499Z,99199.25
2018-04-06T11:51:45.775Z,99199.30
2018-04-06T11:54:14.128Z,99200.09
2018-04-06T11:56:42.393Z,99202.50
2018-04-06T11:59:10.652Z,99197.34
2018-04-06T12:01:38.983Z,99193.48
2018-04-06T12:04:07.268Z,99186.06
2018-04-06T12:06:36.368Z,99182.56
2018-04-06T12:09:04.625Z,99183.17
2018-04-06T12:11:32.967Z,99187.47
2018-04-06T12:14:01.252Z,99181.21
2018-04-06T12:16:29.537Z,99171.39
2018-04-06T12:18:57.884Z,99166.95
2018-04-06T12:21:26.164Z,99159.71
2018-04-06T12:23:54.467Z,99154.59
2018-04-06T12:26:22.738Z,99157.47
2018-04-06T12:28:51.072Z,99154.61
2018-04-06T12:31:19.346Z,99151.59
2018-04-06T12:33:47.638Z,99156.67
2018-04-06T12:36:15.931Z,99131.72
2018-04-06T12:38:44.244Z,99120.72
2018-04-06T12:41:12.549Z,99128.47
2018-04-06T12:43:40.819Z,99124.96
2018-04-06T12:46:09.100Z,99130.70
2018-04-06T12:48:37.389Z,99129.09
2018-04-06T12:51:05.647Z,99130.83
2018-04-06T12:53:33.936Z,99119.16
2018-04-06T12:56:02.212Z,99112.00
2018-04-06T12:58:30.512Z,99122.28
2018-04-06T13:00:58.838Z,99104.34
2018-04-06T13:03:27.132Z,99097.99
2018-04-06T13:05:55.449Z,99104.36
2018-04-06T13:08:24.199Z,99099.25
2018-04-06T13:10:52.465Z,99098.77
2018-04-06T13:13:20.850Z,99099.14
2018-04-06T13:15:49.124Z,99096.52
2018-04-06T13:18:17.410Z,99090.86
2018-04-06T13:20:45.680Z,99076.80
2018-04-06T13:23:14.793Z,99092.03
2018-04-06T13:25:43.093Z,99080.05
2018-04-06T13:28:11.342Z,99077.85
2018-04-06T13:30:39.624Z,99065.84
2018-04-06T13:33:07.952Z,99081.19
2018-04-06T13:35:36.259Z,99075.75
2018-04-06T13:38:05.322Z,99076.75
2018-04-06T13:40:33.640Z,99068.73
2018-04-06T13:43:01.907Z,99067.22
2018-04-06T13:45:31.030Z,99053.08
2018-04-06T13:47:59.288Z,99054.08
2018-04-06T13:50:27.648Z,99056.87
2018-04-06T13:52:55.889Z,99044.83
2018-04-06T13:55:24.200Z,99043.55
2018-04-06T13:57:52.472Z,99043.11
2018-04-06T14:00:20.857Z,99034.58
2018-04-06T14:02:49.108Z,99036.52
2018-04-06T14:05:17.441Z,99038.63
2018-04-06T14:07:45.781Z,99026.23
2018-04-06T14:10:14.057Z,99034.48
2018-04-06T14:12:42.423Z,99026.12
2018-04-06T14:15:10.730Z,99018.69
2018-04-06T14:17:38.989Z,99017.50
2018-04-06T14:20:07.253Z,99023.66
2018-04-06T14:22:35.646Z,99013.17
2018-04-06T14:25:04.460Z,99014.13
2018-04-06T14:27:32.776Z,99007.95
2018-04-06T14:30:01.048Z,99009.05
2018-04-06T14:32:29.366Z,99008.74
2018-04-06T14:34:57.637Z,99009.09
2018-04-06T14:37:25.977Z,99012.13
2018-04-06T14:39:54.268Z,99005.55
2018-04-06T14:42:22.587Z,98986.99
2018-04-06T14:44:50.888Z,98989.91
2018-04-06T14:47:19.365Z,98986.99
2018-04-06T14:49:47.630Z,98978.85
2018-04-06T14:52:15.988Z,98983.20
2018-04-06T14:54:44.254Z,98984.12
2018-04-06T14:57:12.740Z,98972.98
2018-04-06T14:59:41.043Z,98978.36
2018-04-06T15:02:09.349Z,98965.97
2018-04-06T15:04:37.654Z,98979.37
2018-04-06T15:07:05.984Z,98973.25
2018-04-06T15:09:34.287Z,98966.81
2018-04-06T15:12:04.481Z,98962.41
2018-04-06T15:14:32.906Z,98964.37
2018-04-06T15:17:02.169Z,98954.63
2018-04-06T15:19:30.467Z,98953.33
2018-04-06T15:21:58.731Z,98953.62
2018-04-06T15:24:27.024Z,98943.48
2018-04-06T15:26:55.292Z,98947.01
2018-04-06T15:29:23.629Z,98950.08
2018-04-06T15:31:51.929Z,98946.35
2018-04-06T15:34:21.273Z,98939.80
2018-04-06T15:36:49.619Z,98944.59
2018-04-06T15:39:18.579Z,98943.52
2018-04-06T15:41:46.876Z,98936.77
2018-04-06T15:44:15.190Z,98925.59
2018-04-06T15:46:43.507Z,98932.55
2018-04-06T15:49:11.777Z,98920.36
2018-04-06T15:51:40.072Z,98920.23
2018-04-06T15:54:08.352Z,98911.94
2018-04-06T15:56:36.768Z,98915.72
2018-04-06T15:59:05.012Z,98910.13
2018-04-06T16:01:33.304Z,98901.72
2018-04-06T16:04:01.602Z,98895.50
2018-04-06T16:06:30.198Z,98901.13
2018-04-06T16:08:58.496Z,98904.61
2018-04-06T16:11:26.781Z,98897.91
2018-04-06T16:13:55.066Z,98889.97
2018-04-06T16:16:23.387Z,98865.94
2018-04-06T16:18:51.688Z,98904.58
2018-04-06T16:21:20.086Z,98905.47
2018-04-06T16:23:48.368Z,98899.52
2018-04-06T16:26:16.642Z,98893.83
2018-04-06T16:28:44.940Z,98886.55
2018-04-06T16:31:13.280Z,98882.28
2018-04-06T16:33:41.639Z,98885.58
2018-04-06T16:36:10.304Z,98886.17
2018-04-06T16:38:38.600Z,98874.92
2018-04-06T16:41:06.962Z,98868.19
2018-04-06T16:43:35.293Z,98872.52
2018-04-06T16:46:03.660Z,98870.98
2018-04-06T16:48:31.969Z,98880.20
2018-04-06T16:51:00.276Z,98880.59
2018-04-06T16:53:28.608Z,98870.97
2018-04-06T16:55:56.912Z,98874.38
2018-04-06T16:58:25.212Z,98876.08
2018-04-06T17:00:53.505Z,98868.57
2018-04-06T17:03:21.821Z,98870.42
2018-04-06T17:05:50.146Z,98863.52
2018-04-06T17:08:18.423Z,98871.71
2018-04-06T17:10:46.798Z,98871.48
2018-04-06T17:13:15.298Z,98870.37
2018-04-06T17:15:43.807Z,98865.13
2018-04-06T17:18:12.305Z,98868.06
2018-04-06T17:20:40.648Z,98870.64
2018-04-06T17:23:08.923Z,98869.12
2018-04-06T17:25:37.264Z,98851.55
2018-04-06T17:28:05.822Z,98870.30
2018-04-06T17:30:34.130Z,98871.05
2018-04-06T17:33:02.429Z,98874.86
2018-04-06T17:35:30.725Z,98864.66
2018-04-06T17:37:58.985Z,98871.81
2018-04-06T17:40:27.295Z,98869.61
2018-04-06T17:42:55.615Z,98872.09
2018-04-06T17:45:23.921Z,98872.02
2018-04-06T17:47:52.196Z,98866.63
2018-04-06T17:50:20.554Z,98868.25
2018-04-06T17:52:48.967Z,98869.73
2018-04-06T17:55:17.304Z,98870.34
2018-04-06T17:57:45.605Z,98867.05
2018-04-06T18:00:14.073Z,98863.82
2018-04-06T18:02:42.712Z,98867.17
2018-04-06T18:05:14.319Z,98863.70
2018-04-06T18:07:42.637Z,98864.81
2018-04-06T18:10:10.888Z,98867.78
2018-04-06T18:12:39.179Z,98867.09
2018-04-06T18:15:07.466Z,98866.88
2018-04-06T18:17:35.777Z,98867.02
2018-04-06T18:20:04.084Z,98864.99
2018-04-06T18:22:32.454Z,98859.84
2018-04-06T18:25:00.705Z,98864.75
2018-04-06T18:27:29.084Z,98859.74
2018-04-06T18:29:57.357Z,98855.03
2018-04-06T18:32:25.724Z,98856.91
2018-04-06T18:34:54.019Z,98851.56
2018-04-06T18:37:22.316Z,98852.42
2018-04-06T18:39:50.602Z,98851.09
2018-04-06T18:42:19.865Z,98858.31
2018-04-06T18:44:48.207Z,98852.86
2018-04-06T18:47:16.488Z,98852.63
2018-04-06T18:49:44.756Z,98853.73
2018-04-06T18:52:13.062Z,98852.83
2018-04-06T18:54:41.367Z,98854.74
2018-04-06T18:57:09.693Z,98860.01
2018-04-06T18:59:37.964Z,98854.62
2018-04-06T19:02:06.262Z,98851.88
2018-04-06T19:04:34.558Z,98854.67
2018-04-06T19:07:03.073Z,98845.41
2018-04-06T19:09:31.391Z,98841.05
2018-04-06T19:11:59.696Z,98841.98
2018-04-06T19:14:28.049Z,98845.84
2018-04-06T19:16:56.442Z,98848.45
2018-04-06T19:19:25.460Z,98848.56
2018-04-06T19:21:53.716Z,98845.48
2018-04-06T19:24:22.085Z,98845.86
2018-04-06T19:26:50.363Z,98852.95
2018-04-06T19:29:18.654Z,98850.45
2018-04-06T19:31:46.940Z,98849.25
2018-04-06T19:34:15.227Z,98847.61
2018-04-06T19:36:43.513Z,98847.41
2018-04-06T19:39:11.810Z,98841.23
2018-04-06T19:41:40.187Z,98838.45
2018-04-06T19:44:08.470Z,98829.04
2018-04-06T19:46:36.839Z,98825.16
2018-04-06T19:49:05.128Z,98826.66
2018-04-06T19:51:33.432Z,98826.33
2018-04-06T19:54:01.742Z,98822.70
2018-04-06T19:56:30.017Z,98824.12
2018-04-06T19:58:58.360Z,98826.56
2018-04-06T20:01:26.654Z,98822.45
2018-04-06T20:03:54.978Z,98832.05
2018-04-06T20:06:23.413Z,98830.83
2018-04-06T20:08:51.746Z,98827.94
2018-04-06T20:11:20.101Z,98828.97
2018-04-06T20:13:48.362Z,98823.42
2018-04-06T20:16:17.431Z,98815.25
2018-04-06T20:18:45.723Z,98824.72
2018-04-06T20:21:14.062Z,98824.38
2018-04-06T20:23:42.340Z,98822.78
2018-04-06T20:26:10.642Z,98819.19
2018-04-06T20:28:39.176Z,98817.30
2018-04-06T20:31:07.505Z,98818.07
2018-04-06T20:33:35.785Z,98814.62
2018-04-06T20:36:04.110Z,98808.17
2018-04-06T20:38:32.410Z,98810.77
2018-04-06T20:41:00.714Z,98810.50
2018-04-06T20:43:28.988Z,98805.02
2018-04-06T20:45:57.295Z,98809.72
2018-04-06T20:48:27.174Z,98804.94
2018-04-06T20:50:55.483Z,98809.09
2018-04-06T20:53:23.769Z,98804.77
2018-04-06T20:55:52.047Z,98801.66
2018-04-06T20:58:20.390Z,98798.85
2018-04-06T21:00:48.718Z,98795.91
2018-04-06T21:03:18.093Z,98788.23
2018-04-06T21:05:46.354Z,98794.38
2018-04-06T21:08:14.671Z,98792.84
2018-04-06T21:10:42.923Z,98786.46
2018-04-06T21:13:11.290Z,98789.02
2018-04-06T21:15:39.548Z,98788.17
2018-04-06T21:18:08.293Z,98787.61
2018-04-06T21:20:36.563Z,98782.36
2018-04-06T21:23:05.227Z,98784.22
2018-04-06T21:25:33.544Z,98782.95
2018-04-06T21:28:01.833Z,98779.09
2018-04-06T21:30:32.675Z,98776.45
2018-04-06T21:33:00.957Z,98773.24
2018-04-06T21:35:29.257Z,98773.89
2018-04-06T21:37:57.662Z,98781.30
2018-04-06T21:40:25.979Z,98778.16
2018-04-06T21:42:54.304Z,98774.66
2018-04-06T21:45:22.598Z,98773.31
2018-04-06T21:47:50.983Z,98770.15
2018-04-06T21:50:19.312Z,98767.70
2018-04-06T21:52:47.764Z,98765.80
2018-04-06T21:55:16.086Z,98774.31
2018-04-06T21:57:44.374Z,98766.70
2018-04-06T22:00:12.663Z,98763.70
2018-04-06T22:02:40.933Z,98762.18
2018-04-06T22:05:09.251Z,98767.62
2018-04-06T22:07:37.584Z,98766.11
2018-04-06T22:10:05.864Z,98766.45
2018-04-06T22:12:34.144Z,98762.09
2018-04-06T22:15:02.481Z,98757.61
2018-04-06T22:17:30.728Z,98753.11
2018-04-06T22:19:59.047Z,98746.81
2018-04-06T22:22:27.346Z,98743.87
2018-04-06T22:24:55.699Z,98738.64
2018-04-06T22:27:24.017Z,98731.81
2018-04-06T22:29:52.364Z,98730.76
2018-04-06T22:32:20.655Z,98734.25
2018-04-06T22:34:49.040Z,98733.15
2018-04-06T22:37:17.341Z,98728.69
2018-04-06T22:39:45.624Z,98726.80
2018-04-06T22:42:14.012Z,98727.28
2018-04-06T22:44:42.284Z,98731.33
2018-04-06T22:47:10.547Z,98728.44
2018-04-06T22:49:38.868Z,98732.23
2018-04-06T22:52:08.914Z,98728.09
2018-04-06T22:54:37.173Z,98726.92
2018-04-06T22:57:05.608Z,98719.39
2018-04-06T22:59:33.871Z,98718.48
2018-04-06T23:02:02.216Z,98718.88
2018-04-06T23:04:30.505Z,98719.04
2018-04-06T23:06:58.861Z,98721.70
2018-04-06T23:09:27.175Z,98722.69
2018-04-06T23:11:55.559Z,98727.73
2018-04-06T23:14:23.845Z,98722.09
2018-04-06T23:16:52.181Z,98723.66
2018-04-06T23:19:20.448Z,98723.04
2018-04-06T23:21:48.794Z,98722.45
2018-04-06T23:24:17.118Z,98720.47
2018-04-06T23:26:45.429Z,98719.55
2018-04-06T23:29:13.954Z,98726.70
2018-04-06T23:31:42.243Z,98722.77
2018-04-06T23:34:10.512Z,98719.97
2018-04-06T23:36:38.798Z,98728.22
2018-04-06T23:39:07.080Z,98725.51
2018-04-06T23:41:35.419Z,98721.53
2018-04-06T23:44:03.664Z,98723.21
2018-04-06T23:46:31.950Z,98717.70
2018-04-06T23:49:00.264Z,98719.56
2018-04-06T23:51:28.524Z,98706.92
2018-04-06T23:53:56.807Z,98706.13
2018-04-06T23:56:25.085Z,98704.19
2018-04-06T23:58:53.396Z,98703.42
